sensor_id;sensor_type;location;lat;lon;timestamp;P1;durP1;ratioP1;P2;durP2;ratioP2
39930;SDS011;26635;-35.248;149.138;2022-08-19T00:02:20;0.10;;;0.00;;
39930;SDS011;26635;-35.248;149.138;2022-08-19T00:04:50;0.88;;;0.00;;
39930;SDS011;26635;-35.248;149.138;2022-08-19T00:07:21;0.22;;;0.20;;
39930;SDS011;26635;-35.248;149.138;2022-08-19T00:09:51;0.50;;;0.10;;
39930;SDS011;26635;-35.248;149.138;2022-08-19T00:12:23;0.13;;;0.05;;
39930;SDS011;26635;-35.248;149.138;2022-08-19T00:14:53;0.00;;;0.00;;
39930;SDS011;26635;-35.248;149.138;2022-08-19T00:17:24;0.10;;;0.00;;
39930;SDS011;26635;-35.248;149.138;2022-08-19T00:19:55;0.00;;;0.00;;
39930;SDS011;26635;-35.248;149.138;2022-08-19T00:22:25;0.10;;;0.00;;
39930;SDS011;26635;-35.248;149.138;2022-08-19T00:24:56;0.00;;;0.00;;
39930;SDS011;26635;-35.248;149.138;2022-08-19T00:27:28;0.30;;;0.10;;
39930;SDS011;26635;-35.248;149.138;2022-08-19T00:30:00;0.28;;;0.00;;
39930;SDS011;26635;-35.248;149.138;2022-08-19T00:32:34;0.00;;;0.00;;
39930;SDS011;26635;-35.248;149.138;2022-08-19T00:35:05;0.08;;;0.00;;
39930;SDS011;26635;-35.248;149.138;2022-08-19T00:37:40;0.15;;;0.00;;
39930;SDS011;26635;-35.248;149.138;2022-08-19T00:40:12;0.00;;;0.00;;
39930;SDS011;26635;-35.248;149.138;2022-08-19T00:42:43;0.00;;;0.00;;
39930;SDS011;26635;-35.248;149.138;2022-08-19T00:45:17;0.00;;;0.00;;
39930;SDS011;26635;-35.248;149.138;2022-08-19T00:47:49;0.43;;;0.00;;
39930;SDS011;26635;-35.248;149.138;2022-08-19T00:50:20;0.47;;;0.00;;
39930;SDS011;26635;-35.248;149.138;2022-08-19T00:52:51;1.05;;;0.10;;
39930;SDS011;26635;-35.248;149.138;2022-08-19T00:55:23;0.03;;;0.00;;
39930;SDS011;26635;-35.248;149.138;2022-08-19T00:58:00;0.13;;;0.00;;
39930;SDS011;26635;-35.248;149.138;2022-08-19T01:00:38;0.52;;;0.00;;
39930;SDS011;26635;-35.248;149.138;2022-08-19T01:03:11;0.35;;;0.00;;
39930;SDS011;26635;-35.248;149.138;2022-08-19T01:05:45;0.05;;;0.00;;
39930;SDS011;26635;-35.248;149.138;2022-08-19T01:08:18;0.00;;;0.00;;
39930;SDS011;26635;-35.248;149.138;2022-08-19T01:10:53;0.20;;;0.00;;
39930;SDS011;26635;-35.248;149.138;2022-08-19T01:13:27;0.00;;;0.00;;
39930;SDS011;26635;-35.248;149.138;2022-08-19T01:16:16;0.25;;;0.00;;
39930;SDS011;26635;-35.248;149.138;2022-08-19T01:18:50;0.10;;;0.10;;
39930;SDS011;26635;-35.248;149.138;2022-08-19T01:24:06;0.00;;;0.00;;
39930;SDS011;26635;-35.248;149.138;2022-08-19T01:26:41;0.00;;;0.00;;
39930;SDS011;26635;-35.248;149.138;2022-08-19T01:29:14;0.20;;;0.20;;
39930;SDS011;26635;-35.248;149.138;2022-08-19T01:31:47;0.00;;;0.00;;
39930;SDS011;26635;-35.248;149.138;2022-08-19T01:34:21;0.00;;;0.00;;
39930;SDS011;26635;-35.248;149.138;2022-08-19T01:36:51;0.25;;;0.03;;
39930;SDS011;26635;-35.248;149.138;2022-08-19T01:39:23;0.00;;;0.00;;
39930;SDS011;26635;-35.248;149.138;2022-08-19T01:42:05;0.00;;;0.00;;
39930;SDS011;26635;-35.248;149.138;2022-08-19T01:44:39;0.00;;;0.00;;
39930;SDS011;26635;-35.248;149.138;2022-08-19T01:47:09;0.28;;;0.00;;
39930;SDS011;26635;-35.248;149.138;2022-08-19T01:49:40;0.00;;;0.00;;
39930;SDS011;26635;-35.248;149.138;2022-08-19T01:52:11;0.00;;;0.00;;
39930;SDS011;26635;-35.248;149.138;2022-08-19T01:54:42;0.00;;;0.00;;
39930;SDS011;26635;-35.248;149.138;2022-08-19T01:57:12;0.10;;;0.00;;
39930;SDS011;26635;-35.248;149.138;2022-08-19T01:59:44;0.03;;;0.00;;
39930;SDS011;26635;-35.248;149.138;2022-08-19T02:02:15;0.00;;;0.00;;
39930;SDS011;26635;-35.248;149.138;2022-08-19T02:04:46;0.00;;;0.00;;
39930;SDS011;26635;-35.248;149.138;2022-08-19T02:07:21;0.00;;;0.00;;
39930;SDS011;26635;-35.248;149.138;2022-08-19T02:09:54;0.10;;;0.00;;
39930;SDS011;26635;-35.248;149.138;2022-08-19T02:12:34;0.10;;;0.00;;
39930;SDS011;26635;-35.248;149.138;2022-08-19T02:15:05;2.05;;;0.10;;
39930;SDS011;26635;-35.248;149.138;2022-08-19T02:17:36;0.75;;;0.57;;
39930;SDS011;26635;-35.248;149.138;2022-08-19T02:20:08;0.75;;;0.00;;
39930;SDS011;26635;-35.248;149.138;2022-08-19T02:22:39;2.55;;;0.20;;
39930;SDS011;26635;-35.248;149.138;2022-08-19T02:25:12;1.33;;;0.20;;
39930;SDS011;26635;-35.248;149.138;2022-08-19T02:27:45;2.20;;;0.30;;
39930;SDS011;26635;-35.248;149.138;2022-08-19T02:30:16;1.13;;;0.40;;
39930;SDS011;26635;-35.248;149.138;2022-08-19T02:32:47;0.30;;;0.10;;
39930;SDS011;26635;-35.248;149.138;2022-08-19T02:35:18;2.15;;;0.20;;
39930;SDS011;26635;-35.248;149.138;2022-08-19T02:37:49;0.50;;;0.00;;
39930;SDS011;26635;-35.248;149.138;2022-08-19T02:40:38;2.20;;;0.20;;
39930;SDS011;26635;-35.248;149.138;2022-08-19T02:43:09;0.88;;;0.10;;
39930;SDS011;26635;-35.248;149.138;2022-08-19T02:45:40;0.85;;;0.10;;
39930;SDS011;26635;-35.248;149.138;2022-08-19T02:48:11;0.57;;;0.10;;
39930;SDS011;26635;-35.248;149.138;2022-08-19T02:50:50;0.20;;;0.00;;
39930;SDS011;26635;-35.248;149.138;2022-08-19T02:53:24;0.47;;;0.10;;
39930;SDS011;26635;-35.248;149.138;2022-08-19T02:55:57;0.75;;;0.00;;
39930;SDS011;26635;-35.248;149.138;2022-08-19T02:58:27;0.85;;;0.08;;
39930;SDS011;26635;-35.248;149.138;2022-08-19T03:00:58;1.10;;;0.43;;
39930;SDS011;26635;-35.248;149.138;2022-08-19T03:03:28;1.50;;;0.30;;
39930;SDS011;26635;-35.248;149.138;2022-08-19T03:06:04;0.82;;;0.30;;
39930;SDS011;26635;-35.248;149.138;2022-08-19T03:08:44;1.40;;;0.15;;
39930;SDS011;26635;-35.248;149.138;2022-08-19T03:11:18;0.55;;;0.10;;
39930;SDS011;26635;-35.248;149.138;2022-08-19T03:13:50;0.80;;;0.10;;
39930;SDS011;26635;-35.248;149.138;2022-08-19T03:16:22;0.57;;;0.15;;
39930;SDS011;26635;-35.248;149.138;2022-08-19T03:18:59;0.47;;;0.10;;
39930;SDS011;26635;-35.248;149.138;2022-08-19T03:21:33;0.32;;;0.10;;
39930;SDS011;26635;-35.248;149.138;2022-08-19T03:24:05;0.32;;;0.10;;
39930;SDS011;26635;-35.248;149.138;2022-08-19T03:26:42;0.47;;;0.20;;
39930;SDS011;26635;-35.248;149.138;2022-08-19T03:29:16;1.70;;;0.20;;
39930;SDS011;26635;-35.248;149.138;2022-08-19T03:31:58;0.30;;;0.10;;
39930;SDS011;26635;-35.248;149.138;2022-08-19T03:34:32;1.27;;;0.10;;
39930;SDS011;26635;-35.248;149.138;2022-08-19T03:37:11;1.45;;;0.73;;
39930;SDS011;26635;-35.248;149.138;2022-08-19T03:39:42;0.93;;;0.20;;
39930;SDS011;26635;-35.248;149.138;2022-08-19T03:42:13;10.52;;;0.93;;
39930;SDS011;26635;-35.248;149.138;2022-08-19T03:45:05;1.45;;;0.35;;
39930;SDS011;26635;-35.248;149.138;2022-08-19T03:47:37;1.42;;;0.22;;
39930;SDS011;26635;-35.248;149.138;2022-08-19T03:50:10;2.60;;;0.25;;
39930;SDS011;26635;-35.248;149.138;2022-08-19T03:52:42;1.45;;;0.20;;
39930;SDS011;26635;-35.248;149.138;2022-08-19T03:55:21;0.65;;;0.15;;
39930;SDS011;26635;-35.248;149.138;2022-08-19T03:57:53;1.73;;;0.20;;
39930;SDS011;26635;-35.248;149.138;2022-08-19T04:00:25;1.35;;;0.90;;
39930;SDS011;26635;-35.248;149.138;2022-08-19T04:02:58;2.25;;;0.10;;
39930;SDS011;26635;-35.248;149.138;2022-08-19T04:05:30;0.57;;;0.20;;
39930;SDS011;26635;-35.248;149.138;2022-08-19T04:08:01;1.10;;;0.15;;
39930;SDS011;26635;-35.248;149.138;2022-08-19T04:10:39;0.50;;;0.15;;
39930;SDS011;26635;-35.248;149.138;2022-08-19T04:13:12;0.43;;;0.10;;
39930;SDS011;26635;-35.248;149.138;2022-08-19T04:15:45;1.80;;;0.20;;
39930;SDS011;26635;-35.248;149.138;2022-08-19T04:18:15;0.30;;;0.10;;
39930;SDS011;26635;-35.248;149.138;2022-08-19T04:20:48;0.85;;;0.25;;
39930;SDS011;26635;-35.248;149.138;2022-08-19T04:23:20;0.22;;;0.20;;
39930;SDS011;26635;-35.248;149.138;2022-08-19T04:25:55;0.30;;;0.10;;
39930;SDS011;26635;-35.248;149.138;2022-08-19T04:28:29;0.80;;;0.20;;
39930;SDS011;26635;-35.248;149.138;2022-08-19T04:31:01;0.55;;;0.20;;
39930;SDS011;26635;-35.248;149.138;2022-08-19T04:33:34;0.63;;;0.22;;
39930;SDS011;26635;-35.248;149.138;2022-08-19T04:36:05;0.40;;;0.10;;
39930;SDS011;26635;-35.248;149.138;2022-08-19T04:38:43;0.30;;;0.10;;
39930;SDS011;26635;-35.248;149.138;2022-08-19T04:41:18;0.35;;;0.20;;
39930;SDS011;26635;-35.248;149.138;2022-08-19T04:44:07;0.30;;;0.05;;
39930;SDS011;26635;-35.248;149.138;2022-08-19T04:46:39;0.10;;;0.00;;
39930;SDS011;26635;-35.248;149.138;2022-08-19T04:49:19;0.25;;;0.10;;
39930;SDS011;26635;-35.248;149.138;2022-08-19T04:51:53;0.30;;;0.00;;
39930;SDS011;26635;-35.248;149.138;2022-08-19T04:54:25;0.32;;;0.10;;
39930;SDS011;26635;-35.248;149.138;2022-08-19T04:57:05;0.03;;;0.00;;
39930;SDS011;26635;-35.248;149.138;2022-08-19T04:59:40;0.00;;;0.00;;
39930;SDS011;26635;-35.248;149.138;2022-08-19T05:02:11;0.28;;;0.10;;
39930;SDS011;26635;-35.248;149.138;2022-08-19T05:04:43;0.22;;;0.00;;
39930;SDS011;26635;-35.248;149.138;2022-08-19T05:07:15;0.20;;;0.10;;
39930;SDS011;26635;-35.248;149.138;2022-08-19T05:09:47;0.43;;;0.10;;
39930;SDS011;26635;-35.248;149.138;2022-08-19T05:12:25;0.20;;;0.08;;
39930;SDS011;26635;-35.248;149.138;2022-08-19T05:14:57;0.17;;;0.05;;
39930;SDS011;26635;-35.248;149.138;2022-08-19T05:17:29;0.50;;;0.20;;
39930;SDS011;26635;-35.248;149.138;2022-08-19T05:20:05;0.10;;;0.00;;
39930;SDS011;26635;-35.248;149.138;2022-08-19T05:22:54;0.20;;;0.10;;
39930;SDS011;26635;-35.248;149.138;2022-08-19T05:25:25;0.50;;;0.10;;
39930;SDS011;26635;-35.248;149.138;2022-08-19T05:27:57;0.85;;;0.17;;
39930;SDS011;26635;-35.248;149.138;2022-08-19T05:30:28;0.35;;;0.10;;
39930;SDS011;26635;-35.248;149.138;2022-08-19T05:33:13;0.40;;;0.20;;
39930;SDS011;26635;-35.248;149.138;2022-08-19T05:35:44;1.55;;;1.33;;
39930;SDS011;26635;-35.248;149.138;2022-08-19T05:38:16;0.85;;;0.00;;
39930;SDS011;26635;-35.248;149.138;2022-08-19T05:40:49;0.10;;;0.10;;
39930;SDS011;26635;-35.248;149.138;2022-08-19T05:43:21;0.00;;;0.00;;
39930;SDS011;26635;-35.248;149.138;2022-08-19T05:45:52;0.77;;;0.52;;
39930;SDS011;26635;-35.248;149.138;2022-08-19T05:48:24;0.38;;;0.10;;
39930;SDS011;26635;-35.248;149.138;2022-08-19T05:50:55;0.20;;;0.08;;
39930;SDS011;26635;-35.248;149.138;2022-08-19T05:53:28;0.20;;;0.08;;
39930;SDS011;26635;-35.248;149.138;2022-08-19T05:56:06;0.00;;;0.00;;
39930;SDS011;26635;-35.248;149.138;2022-08-19T05:58:37;1.38;;;0.10;;
39930;SDS011;26635;-35.248;149.138;2022-08-19T06:01:12;0.13;;;0.00;;
39930;SDS011;26635;-35.248;149.138;2022-08-19T06:03:46;0.73;;;0.20;;
39930;SDS011;26635;-35.248;149.138;2022-08-19T06:06:17;0.28;;;0.10;;
39930;SDS011;26635;-35.248;149.138;2022-08-19T06:08:49;0.40;;;0.10;;
39930;SDS011;26635;-35.248;149.138;2022-08-19T06:11:23;0.70;;;0.10;;
39930;SDS011;26635;-35.248;149.138;2022-08-19T06:14:10;0.10;;;0.00;;
39930;SDS011;26635;-35.248;149.138;2022-08-19T06:16:53;0.57;;;0.30;;
39930;SDS011;26635;-35.248;149.138;2022-08-19T06:19:27;0.40;;;0.10;;
39930;SDS011;26635;-35.248;149.138;2022-08-19T06:22:09;0.75;;;0.05;;
39930;SDS011;26635;-35.248;149.138;2022-08-19T06:24:41;0.63;;;0.00;;
39930;SDS011;26635;-35.248;149.138;2022-08-19T06:27:11;1.27;;;0.10;;
39930;SDS011;26635;-35.248;149.138;2022-08-19T06:29:42;0.55;;;0.00;;
39930;SDS011;26635;-35.248;149.138;2022-08-19T06:32:16;0.10;;;0.00;;
39930;SDS011;26635;-35.248;149.138;2022-08-19T06:34:48;0.40;;;0.00;;
39930;SDS011;26635;-35.248;149.138;2022-08-19T06:37:19;0.20;;;0.08;;
39930;SDS011;26635;-35.248;149.138;2022-08-19T06:39:51;1.25;;;0.10;;
39930;SDS011;26635;-35.248;149.138;2022-08-19T06:42:24;0.90;;;0.00;;
39930;SDS011;26635;-35.248;149.138;2022-08-19T06:44:57;0.10;;;0.10;;
39930;SDS011;26635;-35.248;149.138;2022-08-19T06:47:35;0.65;;;0.13;;
39930;SDS011;26635;-35.248;149.138;2022-08-19T06:50:08;1.02;;;0.10;;
39930;SDS011;26635;-35.248;149.138;2022-08-19T06:52:39;1.20;;;0.13;;
39930;SDS011;26635;-35.248;149.138;2022-08-19T06:55:10;1.80;;;0.10;;
39930;SDS011;26635;-35.248;149.138;2022-08-19T06:57:45;0.50;;;0.20;;
39930;SDS011;26635;-35.248;149.138;2022-08-19T07:00:20;0.85;;;0.10;;
39930;SDS011;26635;-35.248;149.138;2022-08-19T07:02:52;2.55;;;0.20;;
39930;SDS011;26635;-35.248;149.138;2022-08-19T07:05:30;0.52;;;0.20;;
39930;SDS011;26635;-35.248;149.138;2022-08-19T07:08:05;0.73;;;0.10;;
39930;SDS011;26635;-35.248;149.138;2022-08-19T07:10:37;0.60;;;0.17;;
39930;SDS011;26635;-35.248;149.138;2022-08-19T07:13:13;0.70;;;0.22;;
39930;SDS011;26635;-35.248;149.138;2022-08-19T07:15:45;1.17;;;0.32;;
39930;SDS011;26635;-35.248;149.138;2022-08-19T07:18:19;1.08;;;0.10;;
39930;SDS011;26635;-35.248;149.138;2022-08-19T07:21:01;1.10;;;0.20;;
39930;SDS011;26635;-35.248;149.138;2022-08-19T07:23:38;1.35;;;0.20;;
39930;SDS011;26635;-35.248;149.138;2022-08-19T07:26:12;0.77;;;0.20;;
39930;SDS011;26635;-35.248;149.138;2022-08-19T07:28:54;1.02;;;0.25;;
39930;SDS011;26635;-35.248;149.138;2022-08-19T07:31:27;0.65;;;0.20;;
39930;SDS011;26635;-35.248;149.138;2022-08-19T07:33:59;1.38;;;0.30;;
39930;SDS011;26635;-35.248;149.138;2022-08-19T07:36:31;1.02;;;0.20;;
39930;SDS011;26635;-35.248;149.138;2022-08-19T07:39:08;1.48;;;0.30;;
39930;SDS011;26635;-35.248;149.138;2022-08-19T07:41:46;0.35;;;0.20;;
39930;SDS011;26635;-35.248;149.138;2022-08-19T07:44:17;0.88;;;0.30;;
39930;SDS011;26635;-35.248;149.138;2022-08-19T07:46:51;1.92;;;0.30;;
39930;SDS011;26635;-35.248;149.138;2022-08-19T07:49:25;0.30;;;0.20;;
39930;SDS011;26635;-35.248;149.138;2022-08-19T07:51:59;1.52;;;0.20;;
39930;SDS011;26635;-35.248;149.138;2022-08-19T07:54:35;1.35;;;0.20;;
39930;SDS011;26635;-35.248;149.138;2022-08-19T07:57:07;1.88;;;0.30;;
39930;SDS011;26635;-35.248;149.138;2022-08-19T07:59:41;1.50;;;0.40;;
39930;SDS011;26635;-35.248;149.138;2022-08-19T08:02:34;3.08;;;0.93;;
39930;SDS011;26635;-35.248;149.138;2022-08-19T08:09:43;3.45;;;0.52;;
39930;SDS011;26635;-35.248;149.138;2022-08-19T08:12:39;1.80;;;0.40;;
39930;SDS011;26635;-35.248;149.138;2022-08-19T08:15:30;0.82;;;0.40;;
39930;SDS011;26635;-35.248;149.138;2022-08-19T08:18:07;2.65;;;0.68;;
39930;SDS011;26635;-35.248;149.138;2022-08-19T08:20:40;1.48;;;0.35;;
39930;SDS011;26635;-35.248;149.138;2022-08-19T08:23:11;1.50;;;0.60;;
39930;SDS011;26635;-35.248;149.138;2022-08-19T08:25:59;3.17;;;0.50;;
39930;SDS011;26635;-35.248;149.138;2022-08-19T08:28:32;0.90;;;0.40;;
39930;SDS011;26635;-35.248;149.138;2022-08-19T08:31:03;2.28;;;0.70;;
39930;SDS011;26635;-35.248;149.138;2022-08-19T08:33:35;2.22;;;0.80;;
39930;SDS011;26635;-35.248;149.138;2022-08-19T08:36:11;2.55;;;0.70;;
39930;SDS011;26635;-35.248;149.138;2022-08-19T08:38:46;4.32;;;0.80;;
39930;SDS011;26635;-35.248;149.138;2022-08-19T08:41:21;2.75;;;0.73;;
39930;SDS011;26635;-35.248;149.138;2022-08-19T08:47:18;2.72;;;0.70;;
39930;SDS011;26635;-35.248;149.138;2022-08-19T08:50:13;2.75;;;1.80;;
39930;SDS011;26635;-35.248;149.138;2022-08-19T08:52:57;2.03;;;0.47;;
39930;SDS011;26635;-35.248;149.138;2022-08-19T08:55:29;2.28;;;0.57;;
39930;SDS011;26635;-35.248;149.138;2022-08-19T09:00:46;2.67;;;0.90;;
39930;SDS011;26635;-35.248;149.138;2022-08-19T09:03:20;2.97;;;0.60;;
39930;SDS011;26635;-35.248;149.138;2022-08-19T09:09:04;3.10;;;0.70;;
39930;SDS011;26635;-35.248;149.138;2022-08-19T09:17:12;4.97;;;0.90;;
39930;SDS011;26635;-35.248;149.138;2022-08-19T09:19:52;4.03;;;0.65;;
39930;SDS011;26635;-35.248;149.138;2022-08-19T09:22:31;2.50;;;0.60;;
39930;SDS011;26635;-35.248;149.138;2022-08-19T09:25:04;3.38;;;0.60;;
39930;SDS011;26635;-35.248;149.138;2022-08-19T09:27:45;2.35;;;0.85;;
39930;SDS011;26635;-35.248;149.138;2022-08-19T09:31:22;4.65;;;1.25;;
39930;SDS011;26635;-35.248;149.138;2022-08-19T09:34:05;3.10;;;0.80;;
39930;SDS011;26635;-35.248;149.138;2022-08-19T09:36:48;5.03;;;1.55;;
39930;SDS011;26635;-35.248;149.138;2022-08-19T09:39:23;9.85;;;2.85;;
39930;SDS011;26635;-35.248;149.138;2022-08-19T09:42:05;6.00;;;0.80;;
39930;SDS011;26635;-35.248;149.138;2022-08-19T09:44:48;3.45;;;0.80;;
39930;SDS011;26635;-35.248;149.138;2022-08-19T09:47:21;4.18;;;0.60;;
39930;SDS011;26635;-35.248;149.138;2022-08-19T09:49:54;2.92;;;0.98;;
39930;SDS011;26635;-35.248;149.138;2022-08-19T09:52:31;2.28;;;0.52;;
39930;SDS011;26635;-35.248;149.138;2022-08-19T09:55:20;3.53;;;0.55;;
39930;SDS011;26635;-35.248;149.138;2022-08-19T09:58:10;3.47;;;0.47;;
39930;SDS011;26635;-35.248;149.138;2022-08-19T10:00:56;1.95;;;0.60;;
39930;SDS011;26635;-35.248;149.138;2022-08-19T10:03:29;3.95;;;1.00;;
39930;SDS011;26635;-35.248;149.138;2022-08-19T10:06:05;2.22;;;0.60;;
39930;SDS011;26635;-35.248;149.138;2022-08-19T10:08:43;3.70;;;0.80;;
39930;SDS011;26635;-35.248;149.138;2022-08-19T10:11:21;2.83;;;0.68;;
39930;SDS011;26635;-35.248;149.138;2022-08-19T10:14:11;5.85;;;0.70;;
39930;SDS011;26635;-35.248;149.138;2022-08-19T10:16:50;2.83;;;0.60;;
39930;SDS011;26635;-35.248;149.138;2022-08-19T10:19:25;2.88;;;0.85;;
39930;SDS011;26635;-35.248;149.138;2022-08-19T10:21:58;6.32;;;0.93;;
39930;SDS011;26635;-35.248;149.138;2022-08-19T10:24:38;1.90;;;0.60;;
39930;SDS011;26635;-35.248;149.138;2022-08-19T10:27:32;3.22;;;0.85;;
39930;SDS011;26635;-35.248;149.138;2022-08-19T10:30:39;4.72;;;1.13;;
39930;SDS011;26635;-35.248;149.138;2022-08-19T10:33:26;3.53;;;1.35;;
39930;SDS011;26635;-35.248;149.138;2022-08-19T10:36:20;4.70;;;1.02;;
39930;SDS011;26635;-35.248;149.138;2022-08-19T10:38:54;2.30;;;0.70;;
39930;SDS011;26635;-35.248;149.138;2022-08-19T10:41:31;2.08;;;0.60;;
39930;SDS011;26635;-35.248;149.138;2022-08-19T10:44:06;2.15;;;0.57;;
39930;SDS011;26635;-35.248;149.138;2022-08-19T10:47:38;4.28;;;0.82;;
39930;SDS011;26635;-35.248;149.138;2022-08-19T10:51:14;2.08;;;0.80;;
39930;SDS011;26635;-35.248;149.138;2022-08-19T10:54:16;3.97;;;1.00;;
39930;SDS011;26635;-35.248;149.138;2022-08-19T10:56:59;3.35;;;0.70;;
39930;SDS011;26635;-35.248;149.138;2022-08-19T10:59:36;3.53;;;1.30;;
39930;SDS011;26635;-35.248;149.138;2022-08-19T11:03:21;7.03;;;2.17;;
39930;SDS011;26635;-35.248;149.138;2022-08-19T11:06:46;5.38;;;1.92;;
39930;SDS011;26635;-35.248;149.138;2022-08-19T11:09:45;3.55;;;0.68;;
39930;SDS011;26635;-35.248;149.138;2022-08-19T11:12:42;3.80;;;0.70;;
39930;SDS011;26635;-35.248;149.138;2022-08-19T11:16:13;6.85;;;0.82;;
39930;SDS011;26635;-35.248;149.138;2022-08-19T11:20:27;3.80;;;0.65;;
39930;SDS011;26635;-35.248;149.138;2022-08-19T11:24:05;2.63;;;0.47;;
39930;SDS011;26635;-35.248;149.138;2022-08-19T11:27:51;5.82;;;0.85;;
39930;SDS011;26635;-35.248;149.138;2022-08-19T11:31:19;3.50;;;1.08;;
39930;SDS011;26635;-35.248;149.138;2022-08-19T11:34:03;2.25;;;1.10;;
39930;SDS011;26635;-35.248;149.138;2022-08-19T11:40:23;2.72;;;0.90;;
39930;SDS011;26635;-35.248;149.138;2022-08-19T11:44:24;4.25;;;0.50;;
39930;SDS011;26635;-35.248;149.138;2022-08-19T11:47:50;1.33;;;0.45;;
39930;SDS011;26635;-35.248;149.138;2022-08-19T11:54:32;1.70;;;0.43;;
39930;SDS011;26635;-35.248;149.138;2022-08-19T12:01:07;2.17;;;0.77;;
39930;SDS011;26635;-35.248;149.138;2022-08-19T12:03:59;2.97;;;0.70;;
39930;SDS011;26635;-35.248;149.138;2022-08-19T12:06:45;3.60;;;0.70;;
39930;SDS011;26635;-35.248;149.138;2022-08-19T12:09:25;3.95;;;0.60;;
39930;SDS011;26635;-35.248;149.138;2022-08-19T12:12:51;3.97;;;0.70;;
39930;SDS011;26635;-35.248;149.138;2022-08-19T12:15:57;3.53;;;0.60;;
39930;SDS011;26635;-35.248;149.138;2022-08-19T12:19:21;1.48;;;0.32;;
39930;SDS011;26635;-35.248;149.138;2022-08-19T12:22:37;3.00;;;0.70;;
39930;SDS011;26635;-35.248;149.138;2022-08-19T12:26:14;2.05;;;0.55;;
39930;SDS011;26635;-35.248;149.138;2022-08-19T12:32:52;1.67;;;0.60;;
39930;SDS011;26635;-35.248;149.138;2022-08-19T12:35:47;2.58;;;0.65;;
39930;SDS011;26635;-35.248;149.138;2022-08-19T12:38:33;2.83;;;0.60;;
39930;SDS011;26635;-35.248;149.138;2022-08-19T12:41:21;2.30;;;0.82;;
39930;SDS011;26635;-35.248;149.138;2022-08-19T12:44:03;2.53;;;0.80;;
39930;SDS011;26635;-35.248;149.138;2022-08-19T12:46:54;3.45;;;0.68;;
39930;SDS011;26635;-35.248;149.138;2022-08-19T12:50:16;3.88;;;0.80;;
39930;SDS011;26635;-35.248;149.138;2022-08-19T12:54:20;5.97;;;1.08;;
39930;SDS011;26635;-35.248;149.138;2022-08-19T12:57:27;14.38;;;5.60;;
39930;SDS011;26635;-35.248;149.138;2022-08-19T13:00:20;6.75;;;1.30;;
39930;SDS011;26635;-35.248;149.138;2022-08-19T13:03:18;7.15;;;1.77;;
39930;SDS011;26635;-35.248;149.138;2022-08-19T13:05:54;4.63;;;0.98;;
39930;SDS011;26635;-35.248;149.138;2022-08-19T13:08:25;2.63;;;0.98;;
39930;SDS011;26635;-35.248;149.138;2022-08-19T13:11:19;4.75;;;0.75;;
39930;SDS011;26635;-35.248;149.138;2022-08-19T13:13:53;2.05;;;0.95;;
39930;SDS011;26635;-35.248;149.138;2022-08-19T13:16:26;2.30;;;1.00;;
39930;SDS011;26635;-35.248;149.138;2022-08-19T13:18:58;2.65;;;0.43;;
39930;SDS011;26635;-35.248;149.138;2022-08-19T13:21:32;1.52;;;0.70;;
39930;SDS011;26635;-35.248;149.138;2022-08-19T13:24:18;8.35;;;4.38;;
39930;SDS011;26635;-35.248;149.138;2022-08-19T13:27:00;10.13;;;5.25;;
39930;SDS011;26635;-35.248;149.138;2022-08-19T13:29:33;38.00;;;14.57;;
39930;SDS011;26635;-35.248;149.138;2022-08-19T13:32:25;28.10;;;13.05;;
39930;SDS011;26635;-35.248;149.138;2022-08-19T13:35:17;19.55;;;10.38;;
39930;SDS011;26635;-35.248;149.138;2022-08-19T13:38:01;11.02;;;4.60;;
39930;SDS011;26635;-35.248;149.138;2022-08-19T13:40:38;8.25;;;2.60;;
39930;SDS011;26635;-35.248;149.138;2022-08-19T13:43:16;7.93;;;4.57;;
39930;SDS011;26635;-35.248;149.138;2022-08-19T13:46:18;7.18;;;4.78;;
39930;SDS011;26635;-35.248;149.138;2022-08-19T13:49:27;6.82;;;4.32;;
39930;SDS011;26635;-35.248;149.138;2022-08-19T13:52:45;9.57;;;5.20;;
39930;SDS011;26635;-35.248;149.138;2022-08-19T13:55:32;9.02;;;5.10;;
39930;SDS011;26635;-35.248;149.138;2022-08-19T13:58:23;8.80;;;5.07;;
39930;SDS011;26635;-35.248;149.138;2022-08-19T14:01:09;7.82;;;3.58;;
39930;SDS011;26635;-35.248;149.138;2022-08-19T14:03:52;12.52;;;4.60;;
39930;SDS011;26635;-35.248;149.138;2022-08-19T14:06:39;5.68;;;2.15;;
39930;SDS011;26635;-35.248;149.138;2022-08-19T14:09:54;4.60;;;2.20;;
39930;SDS011;26635;-35.248;149.138;2022-08-19T14:12:36;6.40;;;1.80;;
39930;SDS011;26635;-35.248;149.138;2022-08-19T14:15:20;4.32;;;1.98;;
39930;SDS011;26635;-35.248;149.138;2022-08-19T14:18:11;4.72;;;2.35;;
39930;SDS011;26635;-35.248;149.138;2022-08-19T14:20:54;6.32;;;2.08;;
39930;SDS011;26635;-35.248;149.138;2022-08-19T14:23:55;3.63;;;1.60;;
39930;SDS011;26635;-35.248;149.138;2022-08-19T14:26:30;6.45;;;1.58;;
39930;SDS011;26635;-35.248;149.138;2022-08-19T14:29:25;3.22;;;1.20;;
39930;SDS011;26635;-35.248;149.138;2022-08-19T14:32:10;6.50;;;2.78;;
39930;SDS011;26635;-35.248;149.138;2022-08-19T14:38:16;6.28;;;1.90;;
39930;SDS011;26635;-35.248;149.138;2022-08-19T14:41:43;4.82;;;1.33;;
39930;SDS011;26635;-35.248;149.138;2022-08-19T14:51:42;5.38;;;0.98;;
39930;SDS011;26635;-35.248;149.138;2022-08-19T14:54:34;6.40;;;1.20;;
39930;SDS011;26635;-35.248;149.138;2022-08-19T14:57:17;3.75;;;0.73;;
39930;SDS011;26635;-35.248;149.138;2022-08-19T15:00:04;5.15;;;0.70;;
39930;SDS011;26635;-35.248;149.138;2022-08-19T15:03:01;3.88;;;0.73;;
39930;SDS011;26635;-35.248;149.138;2022-08-19T15:05:41;4.05;;;1.35;;
39930;SDS011;26635;-35.248;149.138;2022-08-19T15:08:54;2.58;;;0.88;;
39930;SDS011;26635;-35.248;149.138;2022-08-19T15:11:55;3.08;;;0.60;;
39930;SDS011;26635;-35.248;149.138;2022-08-19T15:15:09;5.70;;;0.70;;
39930;SDS011;26635;-35.248;149.138;2022-08-19T15:17:59;2.90;;;0.77;;
39930;SDS011;26635;-35.248;149.138;2022-08-19T15:20:44;3.65;;;1.38;;
39930;SDS011;26635;-35.248;149.138;2022-08-19T15:27:33;2.25;;;0.50;;
39930;SDS011;26635;-35.248;149.138;2022-08-19T15:37:05;2.70;;;0.80;;
39930;SDS011;26635;-35.248;149.138;2022-08-19T15:39:38;2.70;;;0.45;;
39930;SDS011;26635;-35.248;149.138;2022-08-19T15:43:09;3.38;;;0.30;;
39930;SDS011;26635;-35.248;149.138;2022-08-19T15:45:47;5.13;;;0.60;;
39930;SDS011;26635;-35.248;149.138;2022-08-19T15:48:39;2.20;;;0.20;;
39930;SDS011;26635;-35.248;149.138;2022-08-19T15:51:37;3.53;;;0.60;;
39930;SDS011;26635;-35.248;149.138;2022-08-19T15:54:38;4.38;;;2.10;;
39930;SDS011;26635;-35.248;149.138;2022-08-19T15:58:09;3.33;;;1.50;;
39930;SDS011;26635;-35.248;149.138;2022-08-19T16:01:27;3.40;;;0.93;;
39930;SDS011;26635;-35.248;149.138;2022-08-19T16:08:19;6.45;;;0.93;;
39930;SDS011;26635;-35.248;149.138;2022-08-19T16:11:48;5.70;;;0.70;;
39930;SDS011;26635;-35.248;149.138;2022-08-19T16:14:36;2.72;;;0.57;;
39930;SDS011;26635;-35.248;149.138;2022-08-19T16:17:29;1.65;;;0.40;;
39930;SDS011;26635;-35.248;149.138;2022-08-19T16:20:27;3.10;;;0.40;;
39930;SDS011;26635;-35.248;149.138;2022-08-19T16:24:08;1.92;;;0.50;;
39930;SDS011;26635;-35.248;149.138;2022-08-19T16:31:13;4.80;;;0.93;;
39930;SDS011;26635;-35.248;149.138;2022-08-19T16:34:04;4.65;;;0.93;;
39930;SDS011;26635;-35.248;149.138;2022-08-19T16:37:30;1.83;;;0.43;;
39930;SDS011;26635;-35.248;149.138;2022-08-19T16:40:58;1.20;;;0.40;;
39930;SDS011;26635;-35.248;149.138;2022-08-19T16:44:00;2.95;;;0.47;;
39930;SDS011;26635;-35.248;149.138;2022-08-19T16:47:12;4.93;;;1.02;;